Régionale Moyenne Distance Annecy les Marquisats 2/10/2010 - Ibis

Date : 02/10/2010

Place Nom Licence Catégorie Club Temps Points
1 HABERKORN Chloé 10396 D14 2105BF 0:22:06 3634
2 BORNARD Julie 9402 D14 7305AR 0:25:04 3204
3 DROIN Solène 17925 D14 4201AR 0:26:26 3039
4 LAFARGE Emeline 17418 D14 7403AR 0:27:20 2939
5 ROULLEAUX Julie 11559 D14 9105IF 0:27:34 2914
6 PICAZO Marie 16555 D14 8405PZ 0:29:50 2692
7 BODY Mathilde 10184 D14 7305AR 0:30:30 2633
8 LUTHRINGER Coline 10091 D14 8809GE 0:30:51 2604
9 DELENNE Camilla 13800 D14 1307PZ 0:32:37 2463
10 CHAILLARD Dana 12045 D14 7305AR 0:33:50 2374
11 FALGA Beatrice 12403 D14 6911AR 0:34:47 2309
12 BASSET Fiona 23384 D14 6911AR 0:36:04 2227
13 BONORA Marine 11542 D14 6906AR 0:38:26 2090
14 BISSIERE Camille 19486 D14 4709NA 0:40:45 1971
15 DEFIX Julia 19894 D14 4203AR 0:41:15 1947
16 LEBIHAN Barbara 11508 D14 6804GE 0:44:42 1797
17 PORTE Louise 9143 D14 2105BF 0:48:53 1643
18 LECOEUCHE Charlotte 22216 D14 5906HF 0:51:09 1570
19 PRAT Charline 12609 D14 3408OC 0:54:47 1466
20 KESMEDJIAN Ninon 22673 D14 2607AR 0:57:31 1396
21 DASILVA Auriane 12758 D14 7707IF 1:01:40 1303
22 BULLIER Alisson 23427 D14 0207HF 1:08:06 1179
23 DODIER Lucile 10486 D14 7205PL 1:13:23 1095
RIVOLLIER Isaline 22451 D14 4201AR pm 0
GENNARO Leslie 20863 D14 3811AR pm 0
PIBAROT Apolline 13877 D14 8302PZ pm 0